Seite 3

Das ist Seite 3 neu.

[Quelle: ADDS]
METAR
ETNN 210620Z 05005KT 9999 FEW120 BKN220 16/12 Q1007 BLU+BLU+ BECMG BLU
TAF
TAF ETNN 210414Z 2105/2114 03005KT 9999 NSW SCT100 BKN180 TEMPO 2112/2114 27010G20KT 4000 SHRA BKN015CB
SR / SS: 03:41 / 19:23 UTC (ETNN 2024-05-21)